createdAt,value
2019-06-26T00:00:01.904Z,13.32
2019-06-26T00:01:07.731Z,42.70
2019-06-26T00:02:11.959Z,42.33
2019-06-26T00:03:16.764Z,20.95
2019-06-26T00:04:21.024Z,22.70
2019-06-26T00:05:25.831Z,26.68
2019-06-26T00:06:30.068Z,20.45
2019-06-26T00:07:34.880Z,17.65
2019-06-26T00:08:39.120Z,33.75
2019-06-26T00:09:43.964Z,47.13
2019-06-26T00:10:48.168Z,20.57
2019-06-26T00:11:53.030Z,18.20
2019-06-26T00:12:57.278Z,26.23
2019-06-26T00:14:02.131Z,20.08
2019-06-26T00:15:06.622Z,21.25
2019-06-26T00:16:11.431Z,19.85
2019-06-26T00:17:15.661Z,30.55
2019-06-26T00:18:20.477Z,23.92
2019-06-26T00:19:25.013Z,23.73
2019-06-26T00:20:29.847Z,45.90
2019-06-26T00:21:34.072Z,42.93
2019-06-26T00:22:38.884Z,42.17
2019-06-26T00:23:43.118Z,33.33
2019-06-26T00:24:47.965Z,22.22
2019-06-26T00:25:52.210Z,18.00
2019-06-26T00:26:57.018Z,24.72
2019-06-26T00:28:01.261Z,36.28
2019-06-26T00:29:06.085Z,17.65
2019-06-26T00:30:10.755Z,15.88
2019-06-26T00:31:15.579Z,27.55
2019-06-26T00:32:19.819Z,19.90
2019-06-26T00:33:24.637Z,16.57
2019-06-26T00:34:28.890Z,76.90
2019-06-26T00:35:33.741Z,44.00
2019-06-26T00:36:37.976Z,62.00
2019-06-26T00:37:42.819Z,28.92
2019-06-26T00:38:47.023Z,17.37
2019-06-26T00:39:51.876Z,16.23
2019-06-26T00:40:56.117Z,14.13
2019-06-26T00:42:00.941Z,28.95
2019-06-26T00:43:05.186Z,28.38
2019-06-26T00:44:09.977Z,43.70
2019-06-26T00:45:14.261Z,58.25
2019-06-26T00:46:19.104Z,21.37
2019-06-26T00:47:23.352Z,24.25
2019-06-26T00:48:28.177Z,42.00
2019-06-26T00:49:32.432Z,44.55
2019-06-26T00:50:37.256Z,20.25
2019-06-26T00:51:41.495Z,20.68
2019-06-26T00:52:46.292Z,36.13
2019-06-26T00:53:50.517Z,36.30
2019-06-26T00:54:55.357Z,30.70
2019-06-26T00:55:59.584Z,18.15
2019-06-26T00:57:04.417Z,27.73
2019-06-26T00:58:08.640Z,60.78
2019-06-26T00:59:13.466Z,21.48
2019-06-26T01:00:17.733Z,19.25
2019-06-26T01:01:22.540Z,22.82
2019-06-26T01:02:26.774Z,20.43
2019-06-26T01:03:31.571Z,18.05
2019-06-26T01:04:39.230Z,41.90
2019-06-26T01:05:44.065Z,19.17
2019-06-26T01:06:48.280Z,25.92
2019-06-26T01:07:53.101Z,29.57
2019-06-26T01:08:57.323Z,18.42
2019-06-26T01:10:02.222Z,18.23
2019-06-26T01:11:06.485Z,59.03
2019-06-26T01:12:11.332Z,20.48
2019-06-26T01:13:15.551Z,22.98
2019-06-26T01:14:20.365Z,19.37
2019-06-26T01:15:24.632Z,22.87
2019-06-26T01:16:29.580Z,31.17
2019-06-26T01:17:33.819Z,28.83
2019-06-26T01:18:38.636Z,18.55
2019-06-26T01:19:42.863Z,18.92
2019-06-26T01:20:47.704Z,26.02
2019-06-26T01:21:51.935Z,19.98
2019-06-26T01:22:56.748Z,28.98
2019-06-26T01:24:00.984Z,19.87
2019-06-26T01:25:05.824Z,20.10
2019-06-26T01:26:10.089Z,17.85
2019-06-26T01:27:14.905Z,21.82
2019-06-26T01:28:19.132Z,20.65
2019-06-26T01:29:23.954Z,19.12
2019-06-26T01:30:28.208Z,18.70
2019-06-26T01:31:33.021Z,18.82
2019-06-26T01:32:37.255Z,27.50
2019-06-26T01:33:42.077Z,28.42
2019-06-26T01:34:46.414Z,22.10
2019-06-26T01:35:51.326Z,21.07
2019-06-26T01:36:55.551Z,36.33
2019-06-26T01:38:00.420Z,19.67
2019-06-26T01:39:05.920Z,18.50
2019-06-26T01:40:10.727Z,18.23
2019-06-26T01:41:14.983Z,25.37
2019-06-26T01:42:19.888Z,21.07
2019-06-26T01:43:24.113Z,22.85
2019-06-26T01:44:29.122Z,19.30
2019-06-26T01:45:33.545Z,20.10
2019-06-26T01:46:38.345Z,19.45
2019-06-26T01:47:42.575Z,18.50
2019-06-26T01:48:47.391Z,20.15
2019-06-26T01:49:51.633Z,21.23
2019-06-26T01:50:56.455Z,37.13
2019-06-26T01:52:00.691Z,22.62
2019-06-26T01:53:05.500Z,22.17
2019-06-26T01:54:09.735Z,23.42
2019-06-26T01:55:14.542Z,30.27
2019-06-26T01:56:18.800Z,24.10
2019-06-26T01:57:23.683Z,24.23
2019-06-26T01:58:27.941Z,23.10
2019-06-26T01:59:32.768Z,20.65
2019-06-26T02:00:37.002Z,21.60
2019-06-26T02:01:41.848Z,23.07
2019-06-26T02:02:46.080Z,43.28
2019-06-26T02:03:50.905Z,23.67
2019-06-26T02:04:55.124Z,20.43
2019-06-26T02:05:59.963Z,21.60
2019-06-26T02:07:04.214Z,19.65
2019-06-26T02:08:09.031Z,23.98
2019-06-26T02:09:13.250Z,25.25
2019-06-26T02:10:18.069Z,22.20
2019-06-26T02:11:22.337Z,22.40
2019-06-26T02:12:27.223Z,25.80
2019-06-26T02:13:31.573Z,22.93
2019-06-26T02:14:36.373Z,23.50
2019-06-26T02:15:40.599Z,23.07
2019-06-26T02:16:45.439Z,23.83
2019-06-26T02:17:49.667Z,22.40
2019-06-26T02:18:57.726Z,22.85
2019-06-26T02:20:02.087Z,26.87
2019-06-26T02:21:06.864Z,35.08
2019-06-26T02:22:11.174Z,22.82
2019-06-26T02:23:15.976Z,24.72
2019-06-26T02:24:20.219Z,23.62
2019-06-26T02:25:25.034Z,24.15
2019-06-26T02:26:29.291Z,37.30
2019-06-26T02:27:34.115Z,25.20
2019-06-26T02:28:38.339Z,27.98
2019-06-26T02:29:43.148Z,26.23
2019-06-26T02:30:47.377Z,23.25
2019-06-26T02:31:52.215Z,23.10
2019-06-26T02:32:56.436Z,30.10
2019-06-26T02:34:01.257Z,28.80
2019-06-26T02:35:09.316Z,23.90
2019-06-26T02:36:12.131Z,23.70
2019-06-26T02:37:16.393Z,23.30
2019-06-26T02:38:21.284Z,32.58
2019-06-26T02:39:25.525Z,23.85
2019-06-26T02:40:30.342Z,25.05
2019-06-26T02:41:34.764Z,24.45
2019-06-26T02:42:39.612Z,22.00
2019-06-26T02:43:43.831Z,22.30
2019-06-26T02:44:53.676Z,24.07
2019-06-26T02:45:54.561Z,24.50
2019-06-26T02:47:17.629Z,23.67
2019-06-26T02:48:05.273Z,28.10
2019-06-26T02:49:10.088Z,22.60
2019-06-26T02:50:14.330Z,22.73
2019-06-26T02:51:19.181Z,21.68
2019-06-26T02:52:23.459Z,23.62
2019-06-26T02:53:28.275Z,22.22
2019-06-26T02:54:32.505Z,21.93
2019-06-26T02:55:37.313Z,24.20
2019-06-26T02:56:41.541Z,22.45
2019-06-26T02:57:46.389Z,23.12
2019-06-26T02:58:50.605Z,23.32
2019-06-26T02:59:55.431Z,22.15
2019-06-26T03:00:59.633Z,23.83
2019-06-26T03:02:04.490Z,22.77
2019-06-26T03:03:08.704Z,23.47
2019-06-26T03:04:13.523Z,24.75
2019-06-26T03:05:17.764Z,25.15
2019-06-26T03:06:22.583Z,25.52
2019-06-26T03:07:26.832Z,23.27
2019-06-26T03:08:31.640Z,29.10
2019-06-26T03:09:35.868Z,24.67
2019-06-26T03:10:40.676Z,24.47
2019-06-26T03:11:44.964Z,23.90
2019-06-26T03:12:50.316Z,25.80
2019-06-26T03:13:54.532Z,30.32
2019-06-26T03:15:08.933Z,29.70
2019-06-26T03:16:05.222Z,24.87
2019-06-26T03:17:10.035Z,25.35
2019-06-26T03:18:14.293Z,26.95
2019-06-26T03:19:19.111Z,29.45
2019-06-26T03:20:26.489Z,26.70
2019-06-26T03:21:31.314Z,25.40
2019-06-26T03:22:35.599Z,26.42
2019-06-26T03:23:40.416Z,25.77
2019-06-26T03:24:44.641Z,25.88
2019-06-26T03:25:49.451Z,23.47
2019-06-26T03:26:53.676Z,25.68
2019-06-26T03:27:58.523Z,28.25
2019-06-26T03:29:02.801Z,25.45
2019-06-26T03:30:07.625Z,24.65
2019-06-26T03:31:11.858Z,25.10
2019-06-26T03:32:16.671Z,24.52
2019-06-26T03:33:20.932Z,25.52
2019-06-26T03:34:25.748Z,28.77
2019-06-26T03:35:29.980Z,26.80
2019-06-26T03:36:34.791Z,32.38
2019-06-26T03:37:39.095Z,30.80
2019-06-26T03:38:43.895Z,28.75
2019-06-26T03:39:48.123Z,29.75
2019-06-26T03:40:52.944Z,30.55
2019-06-26T03:41:57.168Z,34.90
2019-06-26T03:43:02.031Z,33.58
2019-06-26T03:44:06.236Z,32.35
2019-06-26T03:45:24.590Z,32.95
2019-06-26T03:46:17.355Z,28.87
2019-06-26T03:47:22.172Z,33.38
2019-06-26T03:48:26.429Z,29.85
2019-06-26T03:49:31.232Z,28.85
2019-06-26T03:50:35.464Z,29.90
2019-06-26T03:51:40.342Z,30.50
2019-06-26T03:52:44.607Z,30.25
2019-06-26T03:53:49.451Z,30.92
2019-06-26T03:54:53.720Z,32.90
2019-06-26T03:55:58.533Z,30.75
2019-06-26T03:57:02.801Z,31.60
2019-06-26T03:58:07.655Z,30.30
2019-06-26T03:59:11.882Z,30.25
2019-06-26T04:00:20.155Z,28.42
2019-06-26T04:01:24.400Z,28.60
2019-06-26T04:02:29.239Z,29.80
2019-06-26T04:03:33.494Z,28.80
2019-06-26T04:04:38.309Z,28.15
2019-06-26T04:05:42.537Z,28.50
2019-06-26T04:06:47.335Z,28.98
2019-06-26T04:07:51.572Z,29.67
2019-06-26T04:08:56.411Z,29.25
2019-06-26T04:10:00.632Z,30.75
2019-06-26T04:11:05.447Z,33.15
2019-06-26T04:12:09.673Z,32.55
2019-06-26T04:13:14.546Z,30.97
2019-06-26T04:14:18.797Z,30.68
2019-06-26T04:15:23.608Z,30.90
2019-06-26T04:16:27.882Z,29.70
2019-06-26T04:17:32.698Z,30.48
2019-06-26T04:18:36.967Z,30.48
2019-06-26T04:19:41.775Z,31.48
2019-06-26T04:20:45.997Z,31.20
2019-06-26T04:21:50.813Z,30.90
2019-06-26T04:22:55.037Z,29.77
2019-06-26T04:23:59.879Z,31.12
2019-06-26T04:25:04.659Z,34.78
2019-06-26T04:26:09.475Z,32.53
2019-06-26T04:27:13.709Z,31.95
2019-06-26T04:28:18.518Z,31.00
2019-06-26T04:29:22.784Z,33.58
2019-06-26T04:30:27.600Z,35.88
2019-06-26T04:31:31.828Z,35.92
2019-06-26T04:32:36.663Z,36.83
2019-06-26T04:33:40.908Z,32.13
2019-06-26T04:34:45.719Z,38.13
2019-06-26T04:35:49.951Z,32.15
2019-06-26T04:36:54.771Z,30.40
2019-06-26T04:37:59.001Z,30.45
2019-06-26T04:39:03.875Z,31.25
2019-06-26T04:40:08.204Z,31.23
2019-06-26T04:41:13.032Z,32.25
2019-06-26T04:42:17.257Z,35.33
2019-06-26T04:43:22.099Z,35.00
2019-06-26T04:44:26.495Z,33.20
2019-06-26T04:45:31.332Z,35.28
2019-06-26T04:46:35.557Z,34.67
2019-06-26T04:47:40.358Z,38.40
2019-06-26T04:48:44.574Z,37.65
2019-06-26T04:49:49.408Z,34.65
2019-06-26T04:50:53.632Z,37.15
2019-06-26T04:51:58.448Z,36.03
2019-06-26T04:53:02.668Z,37.23
2019-06-26T04:54:07.504Z,38.30
2019-06-26T04:55:11.732Z,36.25
2019-06-26T04:56:16.544Z,35.63
2019-06-26T04:57:20.851Z,35.68
2019-06-26T04:58:25.700Z,37.80
2019-06-26T04:59:29.936Z,41.85
2019-06-26T05:00:34.747Z,36.65
2019-06-26T05:01:38.983Z,35.17
2019-06-26T05:02:43.799Z,34.80
2019-06-26T05:03:48.052Z,36.05
2019-06-26T05:04:52.896Z,35.73
2019-06-26T05:05:57.136Z,36.73
2019-06-26T05:07:02.021Z,36.48
2019-06-26T05:08:06.256Z,38.00
2019-06-26T05:09:11.076Z,35.43
2019-06-26T05:10:15.365Z,35.50
2019-06-26T05:11:20.173Z,34.78
2019-06-26T05:12:24.408Z,36.98
2019-06-26T05:13:29.201Z,38.48
2019-06-26T05:14:33.573Z,35.38
2019-06-26T05:15:38.588Z,42.17
2019-06-26T05:16:42.816Z,38.88
2019-06-26T05:17:47.651Z,39.00
2019-06-26T05:18:51.936Z,45.67
2019-06-26T05:19:56.767Z,44.30
2019-06-26T05:21:00.997Z,42.73
2019-06-26T05:22:05.868Z,44.33
2019-06-26T05:23:10.087Z,45.70
2019-06-26T05:24:14.906Z,48.85
2019-06-26T05:25:19.185Z,52.03
2019-06-26T05:26:23.971Z,53.05
2019-06-26T05:27:28.248Z,52.25
2019-06-26T05:28:33.056Z,51.02
2019-06-26T05:29:37.324Z,48.65
2019-06-26T05:30:42.211Z,52.25
2019-06-26T05:31:46.472Z,48.23
2019-06-26T05:32:51.324Z,50.95
2019-06-26T05:33:55.544Z,58.10
2019-06-26T05:35:00.390Z,59.35
2019-06-26T05:36:04.848Z,59.18
2019-06-26T05:37:09.665Z,56.80
2019-06-26T05:38:13.897Z,57.30
2019-06-26T05:39:18.701Z,57.10
2019-06-26T05:40:22.988Z,54.58
2019-06-26T05:41:27.888Z,53.73
2019-06-26T05:42:32.116Z,55.33
2019-06-26T05:43:36.924Z,51.42
2019-06-26T05:44:41.203Z,58.20
2019-06-26T05:45:46.123Z,56.98
2019-06-26T05:46:50.377Z,55.48
2019-06-26T05:47:55.160Z,56.28
2019-06-26T05:48:59.497Z,58.60
2019-06-26T05:50:04.498Z,62.43
2019-06-26T05:51:08.729Z,57.43
2019-06-26T05:52:16.506Z,58.90
2019-06-26T05:53:19.403Z,57.13
2019-06-26T05:54:24.219Z,61.05
2019-06-26T05:55:28.490Z,60.03
2019-06-26T05:56:33.304Z,61.95
2019-06-26T05:57:37.528Z,58.40
2019-06-26T05:58:42.340Z,60.78
2019-06-26T05:59:46.557Z,62.38
2019-06-26T06:00:51.399Z,63.20
2019-06-26T06:01:55.721Z,64.07
2019-06-26T06:03:00.532Z,62.73
2019-06-26T06:04:04.798Z,61.05
2019-06-26T06:05:10.370Z,61.05
2019-06-26T06:06:14.616Z,59.10
2019-06-26T06:07:19.435Z,59.33
2019-06-26T06:08:23.662Z,57.83
2019-06-26T06:09:28.510Z,59.00
2019-06-26T06:10:32.759Z,63.63
2019-06-26T06:11:37.624Z,56.18
2019-06-26T06:12:41.904Z,56.53
2019-06-26T06:13:46.711Z,56.08
2019-06-26T06:14:50.967Z,58.28
2019-06-26T06:15:55.784Z,57.88
2019-06-26T06:17:00.020Z,59.63
2019-06-26T06:18:04.842Z,55.43
2019-06-26T06:19:09.054Z,54.25
2019-06-26T06:20:15.459Z,57.05
2019-06-26T06:21:19.671Z,57.23
2019-06-26T06:22:27.339Z,56.53
2019-06-26T06:23:30.353Z,54.08
2019-06-26T06:24:35.204Z,51.88
2019-06-26T06:25:39.425Z,54.75
2019-06-26T06:26:44.311Z,52.30
2019-06-26T06:27:48.540Z,55.23
2019-06-26T06:28:53.350Z,54.53
2019-06-26T06:29:57.573Z,58.55
2019-06-26T06:31:02.447Z,54.60
2019-06-26T06:32:06.864Z,58.33
2019-06-26T06:33:11.681Z,53.30
2019-06-26T06:34:15.903Z,53.70
2019-06-26T06:35:20.702Z,52.55
2019-06-26T06:36:24.973Z,54.55
2019-06-26T06:37:29.816Z,53.65
2019-06-26T06:38:34.063Z,56.40
2019-06-26T06:39:38.869Z,58.87
2019-06-26T06:40:43.102Z,58.90
2019-06-26T06:41:47.896Z,53.45
2019-06-26T06:42:52.452Z,53.13
2019-06-26T06:43:57.260Z,52.93
2019-06-26T06:45:01.513Z,53.45
2019-06-26T06:46:06.534Z,51.68
2019-06-26T06:47:10.761Z,51.15
2019-06-26T06:48:15.685Z,51.75
2019-06-26T06:49:19.959Z,54.95
2019-06-26T06:50:24.772Z,53.52
2019-06-26T06:51:29.121Z,52.13
2019-06-26T06:52:33.935Z,50.48
2019-06-26T06:53:38.213Z,50.95
2019-06-26T06:54:43.031Z,51.08
2019-06-26T06:55:47.255Z,51.55
2019-06-26T06:56:52.071Z,50.00
2019-06-26T06:57:56.345Z,49.95
2019-06-26T06:59:01.315Z,53.13
2019-06-26T07:00:05.803Z,46.37
2019-06-26T07:01:10.608Z,47.90
2019-06-26T07:02:14.892Z,49.98
2019-06-26T07:03:19.740Z,49.18
2019-06-26T07:04:23.976Z,47.83
2019-06-26T07:05:28.824Z,47.98
2019-06-26T07:06:33.063Z,43.80
2019-06-26T07:07:37.859Z,42.85
2019-06-26T07:08:42.234Z,42.85
2019-06-26T07:09:47.027Z,46.53
2019-06-26T07:10:51.264Z,44.75
2019-06-26T07:11:56.092Z,41.60
2019-06-26T07:13:00.329Z,46.37
2019-06-26T07:14:05.596Z,40.98
2019-06-26T07:15:09.825Z,40.55
2019-06-26T07:16:14.631Z,42.50
2019-06-26T07:17:21.121Z,44.27
2019-06-26T07:18:25.343Z,40.67
2019-06-26T07:19:29.617Z,45.10
2019-06-26T07:20:34.424Z,50.95
2019-06-26T07:21:38.645Z,42.75
2019-06-26T07:22:43.452Z,47.48
2019-06-26T07:23:47.704Z,45.73
2019-06-26T07:24:52.516Z,45.10
2019-06-26T07:25:56.748Z,40.30
2019-06-26T07:27:01.563Z,43.95
2019-06-26T07:28:05.828Z,44.50
2019-06-26T07:29:10.624Z,46.73
2019-06-26T07:30:14.872Z,42.17
2019-06-26T07:31:19.685Z,43.87
2019-06-26T07:32:23.931Z,38.78
2019-06-26T07:33:28.747Z,37.60
2019-06-26T07:34:33.014Z,42.23
2019-06-26T07:35:37.823Z,43.13
2019-06-26T07:36:42.052Z,44.80
2019-06-26T07:37:46.853Z,43.92
2019-06-26T07:38:51.181Z,44.83
2019-06-26T07:40:01.362Z,43.52
2019-06-26T07:41:02.001Z,44.83
2019-06-26T07:42:06.849Z,41.10
2019-06-26T07:43:11.074Z,41.37
2019-06-26T07:44:15.913Z,44.93
2019-06-26T07:45:23.880Z,44.40
2019-06-26T07:46:26.651Z,43.15
2019-06-26T07:47:42.673Z,43.80
2019-06-26T07:48:37.339Z,40.55
2019-06-26T07:49:41.615Z,42.70
2019-06-26T07:50:46.433Z,44.10
2019-06-26T07:51:50.640Z,43.08
2019-06-26T07:52:55.453Z,43.95
2019-06-26T07:53:59.695Z,39.15
2019-06-26T07:55:04.651Z,43.15
2019-06-26T07:56:08.901Z,42.25
2019-06-26T07:57:13.699Z,42.17
2019-06-26T07:58:17.926Z,38.60
2019-06-26T07:59:22.767Z,38.95
2019-06-26T08:00:31.151Z,44.50
2019-06-26T08:01:33.448Z,37.45
2019-06-26T08:02:37.692Z,39.38
2019-06-26T08:03:42.492Z,47.80
2019-06-26T08:04:46.764Z,54.03
2019-06-26T08:05:51.651Z,41.00
2019-06-26T08:06:55.921Z,44.00
2019-06-26T08:08:00.726Z,40.23
2019-06-26T08:09:05.622Z,42.50
2019-06-26T08:10:10.508Z,44.73
2019-06-26T08:11:14.732Z,39.92
2019-06-26T08:12:19.717Z,42.25
2019-06-26T08:13:23.937Z,40.75
2019-06-26T08:14:28.759Z,38.50
2019-06-26T08:15:33.017Z,41.40
2019-06-26T08:16:37.829Z,43.20
2019-06-26T08:17:58.783Z,40.58
2019-06-26T08:18:48.529Z,41.95
2019-06-26T08:19:52.776Z,41.40
2019-06-26T08:21:11.656Z,42.70
2019-06-26T08:22:03.473Z,40.30
2019-06-26T08:23:08.270Z,43.95
2019-06-26T08:24:12.500Z,43.02
2019-06-26T08:25:17.372Z,39.15
2019-06-26T08:26:21.604Z,40.65
2019-06-26T08:27:26.401Z,39.10
2019-06-26T08:28:30.634Z,38.63
2019-06-26T08:29:35.439Z,40.43
2019-06-26T08:30:39.794Z,40.85
2019-06-26T08:31:44.550Z,39.27
2019-06-26T08:32:48.803Z,43.45
2019-06-26T08:33:53.647Z,43.13
2019-06-26T08:34:57.897Z,40.23
2019-06-26T08:36:02.758Z,40.92
2019-06-26T08:37:06.965Z,38.25
2019-06-26T08:38:15.456Z,40.30
2019-06-26T08:39:17.667Z,42.88
2019-06-26T08:40:22.514Z,37.08
2019-06-26T08:41:26.762Z,38.83
2019-06-26T08:42:31.576Z,39.63
2019-06-26T08:43:35.814Z,41.80
2019-06-26T08:44:40.671Z,45.55
2019-06-26T08:45:44.963Z,45.20
2019-06-26T08:46:49.778Z,44.88
2019-06-26T08:47:54.033Z,43.13
2019-06-26T08:48:58.852Z,43.85
2019-06-26T08:50:03.116Z,41.33
2019-06-26T08:51:07.965Z,41.00
2019-06-26T08:52:12.177Z,39.00
2019-06-26T08:53:17.021Z,42.70
2019-06-26T08:54:21.256Z,42.17
2019-06-26T08:55:26.076Z,41.90
2019-06-26T08:56:30.324Z,40.67
2019-06-26T08:57:35.193Z,43.92
2019-06-26T08:58:39.376Z,43.65
2019-06-26T08:59:44.295Z,43.85
2019-06-26T09:00:48.551Z,40.50
2019-06-26T09:01:53.398Z,41.18
2019-06-26T09:02:57.641Z,41.28
2019-06-26T09:04:02.462Z,38.42
2019-06-26T09:05:06.715Z,40.35
2019-06-26T09:06:11.569Z,37.70
2019-06-26T09:07:15.794Z,41.63
2019-06-26T09:08:20.666Z,39.45
2019-06-26T09:09:24.964Z,44.67
2019-06-26T09:10:29.777Z,39.90
2019-06-26T09:11:34.037Z,41.90
2019-06-26T09:12:38.843Z,41.35
2019-06-26T09:13:43.072Z,40.60
2019-06-26T09:14:47.882Z,43.65
2019-06-26T09:15:52.102Z,44.03
2019-06-26T09:16:56.960Z,42.90
2019-06-26T09:18:01.185Z,45.15
2019-06-26T09:19:06.007Z,41.58
2019-06-26T09:20:12.107Z,43.78
2019-06-26T09:21:16.885Z,45.38
2019-06-26T09:22:21.141Z,42.38
2019-06-26T09:23:25.938Z,40.50
2019-06-26T09:24:30.231Z,41.60
2019-06-26T09:25:35.025Z,43.45
2019-06-26T09:26:39.250Z,37.73
2019-06-26T09:27:44.098Z,41.08
2019-06-26T09:28:48.316Z,43.63
2019-06-26T09:29:53.126Z,41.90
2019-06-26T09:30:57.357Z,42.35
2019-06-26T09:32:02.156Z,46.63
2019-06-26T09:33:06.414Z,44.20
2019-06-26T09:34:11.229Z,40.98
2019-06-26T09:35:15.460Z,40.95
2019-06-26T09:36:20.263Z,45.83
2019-06-26T09:37:24.534Z,45.95
2019-06-26T09:38:29.331Z,41.63
2019-06-26T09:39:33.570Z,41.20
2019-06-26T09:40:38.397Z,41.53
2019-06-26T09:41:42.596Z,42.78
2019-06-26T09:42:47.454Z,42.15
2019-06-26T09:43:51.673Z,43.50
2019-06-26T09:44:56.508Z,41.28
2019-06-26T09:46:00.754Z,43.73
2019-06-26T09:47:05.584Z,42.93
2019-06-26T09:48:09.857Z,39.45
2019-06-26T09:49:14.656Z,46.68
2019-06-26T09:50:18.934Z,43.33
2019-06-26T09:51:23.756Z,44.73
2019-06-26T09:52:28.012Z,40.73
2019-06-26T09:53:46.450Z,38.30
2019-06-26T09:54:38.749Z,42.55
2019-06-26T09:55:43.545Z,45.73
2019-06-26T09:56:47.775Z,45.52
2019-06-26T09:57:52.591Z,46.20
2019-06-26T09:58:56.871Z,44.30
2019-06-26T10:00:01.803Z,47.20
2019-06-26T10:01:06.027Z,47.25
2019-06-26T10:02:10.839Z,44.05
2019-06-26T10:03:15.079Z,43.80
2019-06-26T10:04:19.920Z,44.60
2019-06-26T10:05:24.145Z,45.80
2019-06-26T10:06:28.959Z,44.13
2019-06-26T10:07:33.188Z,48.15
2019-06-26T10:08:38.053Z,48.17
2019-06-26T10:09:42.280Z,48.75
2019-06-26T10:10:47.252Z,45.98
2019-06-26T10:11:51.816Z,48.80
2019-06-26T10:12:56.717Z,44.50
2019-06-26T10:14:00.975Z,45.08
2019-06-26T10:15:06.137Z,46.68
2019-06-26T10:16:10.354Z,46.40
2019-06-26T10:17:15.164Z,48.05
2019-06-26T10:18:19.396Z,47.10
2019-06-26T10:19:24.255Z,44.75
2019-06-26T10:20:28.477Z,48.68
2019-06-26T10:21:33.397Z,44.40
2019-06-26T10:22:37.572Z,44.83
2019-06-26T10:23:42.418Z,41.73
2019-06-26T10:24:46.639Z,46.10
2019-06-26T10:25:51.449Z,42.85
2019-06-26T10:26:55.732Z,42.40
2019-06-26T10:28:00.520Z,42.43
2019-06-26T10:29:04.816Z,44.48
2019-06-26T10:30:10.335Z,40.83
2019-06-26T10:31:18.220Z,40.08
2019-06-26T10:32:21.171Z,40.00
2019-06-26T10:33:25.392Z,39.98
2019-06-26T10:34:30.258Z,37.50
2019-06-26T10:35:34.441Z,38.75
2019-06-26T10:36:39.261Z,36.38
2019-06-26T10:37:43.456Z,37.38
2019-06-26T10:38:48.292Z,33.63
2019-06-26T10:39:52.555Z,36.28
2019-06-26T10:40:57.395Z,35.83
2019-06-26T10:42:01.639Z,35.15
2019-06-26T10:43:06.475Z,32.98
2019-06-26T10:44:17.575Z,36.55
2019-06-26T10:45:35.958Z,37.20
2019-06-26T10:46:38.028Z,43.65
2019-06-26T10:47:42.879Z,73.90
2019-06-26T10:49:07.650Z,34.92
2019-06-26T10:50:12.462Z,37.85
2019-06-26T10:51:16.709Z,39.65
2019-06-26T10:52:21.528Z,39.15
2019-06-26T10:53:25.750Z,36.38
2019-06-26T10:54:30.596Z,34.45
2019-06-26T10:55:34.824Z,36.40
2019-06-26T10:56:39.650Z,37.45
2019-06-26T10:57:43.865Z,35.80
2019-06-26T10:58:48.719Z,36.65
2019-06-26T10:59:55.641Z,36.58
2019-06-26T11:00:59.447Z,33.20
2019-06-26T11:02:03.812Z,34.45
2019-06-26T11:03:08.838Z,32.70
2019-06-26T11:04:13.438Z,34.85
2019-06-26T11:05:18.375Z,33.83
2019-06-26T11:06:22.615Z,34.63
2019-06-26T11:07:27.423Z,36.15
2019-06-26T11:08:31.660Z,34.55
2019-06-26T11:09:36.516Z,32.20
2019-06-26T11:10:40.806Z,30.77
2019-06-26T11:11:45.640Z,32.00
2019-06-26T11:12:49.843Z,34.20
2019-06-26T11:13:54.676Z,32.05
2019-06-26T11:14:58.937Z,30.50
2019-06-26T11:16:03.746Z,29.75
2019-06-26T11:17:07.995Z,35.00
2019-06-26T11:18:12.908Z,32.60
2019-06-26T11:19:17.163Z,36.68
2019-06-26T11:20:22.054Z,32.70
2019-06-26T11:21:26.294Z,37.45
2019-06-26T11:22:31.115Z,37.38
2019-06-26T11:23:35.350Z,36.13
2019-06-26T11:24:40.295Z,36.15
2019-06-26T11:25:44.810Z,35.88
2019-06-26T11:26:49.661Z,39.55
2019-06-26T11:27:53.887Z,38.42
2019-06-26T11:28:58.699Z,40.48
2019-06-26T11:30:02.998Z,41.63
2019-06-26T11:31:07.979Z,40.03
2019-06-26T11:32:12.243Z,40.98
2019-06-26T11:33:17.043Z,39.98
2019-06-26T11:34:21.304Z,41.90
2019-06-26T11:35:26.186Z,39.92
2019-06-26T11:36:30.459Z,40.78
2019-06-26T11:37:35.240Z,39.75
2019-06-26T11:38:39.495Z,40.95
2019-06-26T11:39:44.326Z,42.53
2019-06-26T11:40:48.832Z,39.63
2019-06-26T11:41:53.647Z,36.63
2019-06-26T11:42:57.909Z,40.83
2019-06-26T11:44:02.843Z,45.17
2019-06-26T11:45:07.222Z,42.58
2019-06-26T11:46:12.067Z,41.92
2019-06-26T11:47:16.276Z,39.18
2019-06-26T11:48:21.088Z,37.93
2019-06-26T11:49:25.304Z,38.58
2019-06-26T11:50:30.162Z,42.53
2019-06-26T11:51:34.455Z,35.90
2019-06-26T11:52:39.296Z,35.85
2019-06-26T11:53:43.530Z,40.52
2019-06-26T11:55:01.384Z,36.08
2019-06-26T11:55:54.248Z,35.68
2019-06-26T11:56:59.045Z,39.53
2019-06-26T11:58:03.416Z,35.52
2019-06-26T11:59:08.248Z,35.68
2019-06-26T12:00:12.535Z,37.38
2019-06-26T12:01:17.365Z,34.90
2019-06-26T12:02:21.604Z,32.28
2019-06-26T12:03:26.423Z,34.60
2019-06-26T12:04:30.658Z,36.55
2019-06-26T12:05:35.500Z,35.10
2019-06-26T12:06:39.716Z,34.18
2019-06-26T12:07:44.539Z,34.75
2019-06-26T12:08:49.599Z,32.10
2019-06-26T12:09:54.509Z,29.23
2019-06-26T12:10:59.239Z,31.87
2019-06-26T12:12:04.064Z,31.10
2019-06-26T12:13:08.323Z,29.70
2019-06-26T12:14:13.132Z,30.48
2019-06-26T12:15:17.648Z,27.98
2019-06-26T12:16:22.535Z,28.87
2019-06-26T12:17:26.813Z,22.87
2019-06-26T12:18:31.625Z,23.80
2019-06-26T12:19:35.841Z,23.10
2019-06-26T12:20:40.925Z,25.77
2019-06-26T12:21:45.166Z,25.00
2019-06-26T12:22:50.192Z,22.22
2019-06-26T12:23:54.400Z,22.30
2019-06-26T12:24:59.224Z,23.65
2019-06-26T12:26:03.475Z,25.45
2019-06-26T12:27:08.302Z,22.45
2019-06-26T12:28:12.521Z,19.65
2019-06-26T12:29:17.504Z,24.77
2019-06-26T12:30:21.995Z,23.02
2019-06-26T12:31:26.873Z,21.20
2019-06-26T12:32:31.115Z,21.40
2019-06-26T12:33:35.984Z,20.75
2019-06-26T12:34:40.235Z,19.85
2019-06-26T12:35:45.221Z,20.15
2019-06-26T12:36:49.578Z,20.15
2019-06-26T12:37:54.466Z,17.00
2019-06-26T12:38:58.828Z,16.05
2019-06-26T12:40:03.839Z,13.78
2019-06-26T12:41:10.935Z,15.48
2019-06-26T12:42:18.758Z,15.48
2019-06-26T12:43:26.102Z,14.25
2019-06-26T12:44:31.186Z,13.65
2019-06-26T12:45:35.613Z,13.88
2019-06-26T12:46:43.246Z,13.20
2019-06-26T12:47:47.627Z,12.70
2019-06-26T12:48:52.562Z,12.73
2019-06-26T12:49:56.983Z,13.53
2019-06-26T12:51:03.650Z,13.62
2019-06-26T12:52:07.979Z,13.83
2019-06-26T12:53:15.576Z,14.50
2019-06-26T12:54:20.060Z,13.43
2019-06-26T12:55:24.953Z,12.33
2019-06-26T12:56:29.195Z,10.93
2019-06-26T12:57:34.000Z,12.28
2019-06-26T12:58:38.229Z,11.65
2019-06-26T12:59:56.601Z,10.88
2019-06-26T13:00:48.935Z,10.58
2019-06-26T13:01:53.844Z,10.68
2019-06-26T13:02:58.157Z,10.63
2019-06-26T13:04:03.105Z,9.53
2019-06-26T13:05:07.365Z,7.87
2019-06-26T13:06:12.210Z,8.65
2019-06-26T13:07:16.455Z,9.68
2019-06-26T13:08:21.404Z,8.73
2019-06-26T13:09:25.616Z,8.15
2019-06-26T13:10:30.436Z,10.70
2019-06-26T13:11:34.694Z,9.95
2019-06-26T13:12:39.483Z,10.53
2019-06-26T13:13:43.744Z,9.50
2019-06-26T13:14:48.547Z,8.53
2019-06-26T13:15:52.773Z,10.13
2019-06-26T13:16:57.612Z,10.28
2019-06-26T13:18:01.832Z,10.45
2019-06-26T13:19:06.632Z,9.48
2019-06-26T13:20:10.886Z,9.13
2019-06-26T13:21:15.751Z,8.50
2019-06-26T13:22:20.012Z,10.20
2019-06-26T13:23:24.813Z,8.75
2019-06-26T13:24:29.042Z,8.18
2019-06-26T13:25:33.833Z,7.87
2019-06-26T13:26:38.103Z,8.28
2019-06-26T13:27:42.884Z,8.08
2019-06-26T13:28:47.109Z,8.80
2019-06-26T13:29:51.948Z,8.28
2019-06-26T13:30:56.174Z,10.93
2019-06-26T13:32:01.033Z,7.80
2019-06-26T13:33:05.244Z,8.15
2019-06-26T13:34:10.093Z,7.08
2019-06-26T13:35:14.257Z,8.05
2019-06-26T13:36:19.080Z,10.05
2019-06-26T13:37:23.337Z,7.87
2019-06-26T13:38:28.135Z,8.38
2019-06-26T13:39:32.376Z,7.65
2019-06-26T13:40:40.672Z,8.15
2019-06-26T13:41:43.084Z,8.98
2019-06-26T13:42:47.896Z,10.18
2019-06-26T13:43:52.103Z,8.40
2019-06-26T13:44:56.910Z,7.25
2019-06-26T13:46:01.167Z,8.20
2019-06-26T13:47:05.987Z,7.45
2019-06-26T13:48:10.221Z,6.78
2019-06-26T13:49:16.637Z,8.03
2019-06-26T13:50:21.247Z,7.65
2019-06-26T13:51:26.066Z,8.15
2019-06-26T13:52:30.317Z,7.53
2019-06-26T13:53:35.149Z,9.40